sensor_id;sensor_type;location;lat;lon;timestamp;P1;durP1;ratioP1;P2;durP2;ratioP2
22646;SDS011;11490;42.726;23.268;2023-08-08T00:02:04;2.33;;;1.30;;
22646;SDS011;11490;42.726;23.268;2023-08-08T00:04:29;1.38;;;1.10;;
22646;SDS011;11490;42.726;23.268;2023-08-08T00:06:55;1.38;;;1.13;;
22646;SDS011;11490;42.726;23.268;2023-08-08T00:09:20;1.38;;;1.17;;
22646;SDS011;11490;42.726;23.268;2023-08-08T00:11:45;2.40;;;1.35;;
22646;SDS011;11490;42.726;23.268;2023-08-08T00:14:11;1.77;;;1.27;;
22646;SDS011;11490;42.726;23.268;2023-08-08T00:16:36;1.63;;;1.00;;
22646;SDS011;11490;42.726;23.268;2023-08-08T00:19:02;1.92;;;1.40;;
22646;SDS011;11490;42.726;23.268;2023-08-08T00:21:28;1.90;;;1.48;;
22646;SDS011;11490;42.726;23.268;2023-08-08T00:23:53;2.45;;;1.55;;
22646;SDS011;11490;42.726;23.268;2023-08-08T00:26:19;2.90;;;1.25;;
22646;SDS011;11490;42.726;23.268;2023-08-08T00:28:44;1.40;;;1.30;;
22646;SDS011;11490;42.726;23.268;2023-08-08T00:31:09;2.13;;;1.15;;
22646;SDS011;11490;42.726;23.268;2023-08-08T00:33:35;1.40;;;1.13;;
22646;SDS011;11490;42.726;23.268;2023-08-08T00:36:00;1.80;;;1.30;;
22646;SDS011;11490;42.726;23.268;2023-08-08T00:38:26;1.33;;;1.23;;
22646;SDS011;11490;42.726;23.268;2023-08-08T00:40:51;1.30;;;1.20;;
22646;SDS011;11490;42.726;23.268;2023-08-08T00:43:17;1.85;;;1.50;;
22646;SDS011;11490;42.726;23.268;2023-08-08T00:45:42;1.73;;;1.20;;
22646;SDS011;11490;42.726;23.268;2023-08-08T00:48:09;5.95;;;1.23;;
22646;SDS011;11490;42.726;23.268;2023-08-08T00:50:35;1.35;;;1.17;;
22646;SDS011;11490;42.726;23.268;2023-08-08T00:53:03;1.73;;;1.27;;
22646;SDS011;11490;42.726;23.268;2023-08-08T00:55:29;1.55;;;1.10;;
22646;SDS011;11490;42.726;23.268;2023-08-08T00:57:55;2.25;;;1.00;;
22646;SDS011;11490;42.726;23.268;2023-08-08T01:00:21;1.40;;;1.30;;
22646;SDS011;11490;42.726;23.268;2023-08-08T01:02:46;2.08;;;1.45;;
22646;SDS011;11490;42.726;23.268;2023-08-08T01:05:12;1.13;;;1.00;;
22646;SDS011;11490;42.726;23.268;2023-08-08T01:10:17;2.40;;;1.45;;
22646;SDS011;11490;42.726;23.268;2023-08-08T01:12:51;1.60;;;1.33;;
22646;SDS011;11490;42.726;23.268;2023-08-08T01:15:19;1.20;;;1.10;;
22646;SDS011;11490;42.726;23.268;2023-08-08T01:17:46;1.15;;;1.05;;
22646;SDS011;11490;42.726;23.268;2023-08-08T01:20:13;1.25;;;1.15;;
22646;SDS011;11490;42.726;23.268;2023-08-08T01:22:54;5.78;;;1.30;;
22646;SDS011;11490;42.726;23.268;2023-08-08T01:25:36;1.80;;;1.33;;
22646;SDS011;11490;42.726;23.268;2023-08-08T01:28:04;1.65;;;1.30;;
22646;SDS011;11490;42.726;23.268;2023-08-08T01:30:30;1.50;;;1.40;;
22646;SDS011;11490;42.726;23.268;2023-08-08T01:32:55;1.30;;;1.20;;
22646;SDS011;11490;42.726;23.268;2023-08-08T01:35:21;1.95;;;1.40;;
22646;SDS011;11490;42.726;23.268;2023-08-08T01:37:49;1.45;;;1.27;;
22646;SDS011;11490;42.726;23.268;2023-08-08T01:40:19;1.30;;;1.20;;
22646;SDS011;11490;42.726;23.268;2023-08-08T01:42:46;3.80;;;1.50;;
22646;SDS011;11490;42.726;23.268;2023-08-08T01:45:13;2.08;;;1.33;;
22646;SDS011;11490;42.726;23.268;2023-08-08T01:47:41;1.27;;;1.13;;
22646;SDS011;11490;42.726;23.268;2023-08-08T01:50:07;1.70;;;1.55;;
22646;SDS011;11490;42.726;23.268;2023-08-08T01:52:34;1.25;;;1.08;;
22646;SDS011;11490;42.726;23.268;2023-08-08T01:54:59;1.58;;;1.27;;
22646;SDS011;11490;42.726;23.268;2023-08-08T01:57:25;0.90;;;0.90;;
22646;SDS011;11490;42.726;23.268;2023-08-08T01:59:51;2.22;;;1.60;;
22646;SDS011;11490;42.726;23.268;2023-08-08T02:02:16;1.80;;;1.50;;
22646;SDS011;11490;42.726;23.268;2023-08-08T02:04:42;2.30;;;1.65;;
22646;SDS011;11490;42.726;23.268;2023-08-08T02:07:08;2.00;;;1.33;;
22646;SDS011;11490;42.726;23.268;2023-08-08T02:09:33;1.63;;;1.25;;
22646;SDS011;11490;42.726;23.268;2023-08-08T02:11:59;1.85;;;1.52;;
22646;SDS011;11490;42.726;23.268;2023-08-08T02:14:24;1.67;;;1.48;;
22646;SDS011;11490;42.726;23.268;2023-08-08T02:16:49;1.48;;;1.30;;
22646;SDS011;11490;42.726;23.268;2023-08-08T02:19:15;1.90;;;1.45;;
22646;SDS011;11490;42.726;23.268;2023-08-08T02:21:42;1.75;;;1.48;;
22646;SDS011;11490;42.726;23.268;2023-08-08T02:24:07;2.20;;;1.50;;
22646;SDS011;11490;42.726;23.268;2023-08-08T02:26:33;2.17;;;1.65;;
22646;SDS011;11490;42.726;23.268;2023-08-08T02:28:58;3.30;;;2.00;;
22646;SDS011;11490;42.726;23.268;2023-08-08T02:31:24;11.50;;;1.73;;
22646;SDS011;11490;42.726;23.268;2023-08-08T02:33:50;1.98;;;1.77;;
22646;SDS011;11490;42.726;23.268;2023-08-08T02:36:16;1.95;;;1.65;;
22646;SDS011;11490;42.726;23.268;2023-08-08T02:38:42;2.70;;;2.10;;
22646;SDS011;11490;42.726;23.268;2023-08-08T02:41:08;2.13;;;1.73;;
22646;SDS011;11490;42.726;23.268;2023-08-08T02:43:33;3.35;;;2.38;;
22646;SDS011;11490;42.726;23.268;2023-08-08T02:45:59;2.20;;;1.65;;
22646;SDS011;11490;42.726;23.268;2023-08-08T02:48:24;4.43;;;2.40;;
22646;SDS011;11490;42.726;23.268;2023-08-08T02:50:49;2.60;;;2.22;;
22646;SDS011;11490;42.726;23.268;2023-08-08T02:53:15;2.70;;;1.95;;
22646;SDS011;11490;42.726;23.268;2023-08-08T02:55:40;2.70;;;2.17;;
22646;SDS011;11490;42.726;23.268;2023-08-08T02:58:06;2.45;;;1.95;;
22646;SDS011;11490;42.726;23.268;2023-08-08T03:00:31;2.42;;;2.03;;
22646;SDS011;11490;42.726;23.268;2023-08-08T03:02:56;3.92;;;2.30;;
22646;SDS011;11490;42.726;23.268;2023-08-08T03:05:22;2.53;;;2.33;;
22646;SDS011;11490;42.726;23.268;2023-08-08T03:07:47;3.30;;;2.10;;
22646;SDS011;11490;42.726;23.268;2023-08-08T03:10:12;3.33;;;2.17;;
22646;SDS011;11490;42.726;23.268;2023-08-08T03:12:38;2.83;;;2.05;;
22646;SDS011;11490;42.726;23.268;2023-08-08T03:15:05;2.60;;;2.15;;
22646;SDS011;11490;42.726;23.268;2023-08-08T03:17:30;2.53;;;1.98;;
22646;SDS011;11490;42.726;23.268;2023-08-08T03:19:56;3.50;;;2.50;;
22646;SDS011;11490;42.726;23.268;2023-08-08T03:22:21;3.00;;;2.38;;
22646;SDS011;11490;42.726;23.268;2023-08-08T03:24:46;2.70;;;2.28;;
22646;SDS011;11490;42.726;23.268;2023-08-08T03:27:12;3.33;;;2.58;;
22646;SDS011;11490;42.726;23.268;2023-08-08T03:29:37;7.68;;;2.80;;
22646;SDS011;11490;42.726;23.268;2023-08-08T03:32:03;6.95;;;2.75;;
22646;SDS011;11490;42.726;23.268;2023-08-08T03:34:29;5.75;;;2.83;;
22646;SDS011;11490;42.726;23.268;2023-08-08T03:36:55;3.72;;;3.08;;
22646;SDS011;11490;42.726;23.268;2023-08-08T03:39:21;5.90;;;2.85;;
22646;SDS011;11490;42.726;23.268;2023-08-08T03:41:46;3.35;;;2.75;;
22646;SDS011;11490;42.726;23.268;2023-08-08T03:44:12;4.07;;;3.13;;
22646;SDS011;11490;42.726;23.268;2023-08-08T03:46:37;4.72;;;3.60;;
22646;SDS011;11490;42.726;23.268;2023-08-08T03:49:03;3.80;;;2.80;;
22646;SDS011;11490;42.726;23.268;2023-08-08T03:51:28;3.70;;;3.20;;
22646;SDS011;11490;42.726;23.268;2023-08-08T03:53:54;3.47;;;3.15;;
22646;SDS011;11490;42.726;23.268;2023-08-08T03:56:20;5.50;;;2.75;;
22646;SDS011;11490;42.726;23.268;2023-08-08T03:58:46;4.30;;;3.20;;
22646;SDS011;11490;42.726;23.268;2023-08-08T04:01:11;4.03;;;3.25;;
22646;SDS011;11490;42.726;23.268;2023-08-08T04:03:37;3.53;;;3.03;;
22646;SDS011;11490;42.726;23.268;2023-08-08T04:06:02;5.28;;;3.00;;
22646;SDS011;11490;42.726;23.268;2023-08-08T04:08:28;4.13;;;3.30;;
22646;SDS011;11490;42.726;23.268;2023-08-08T04:10:53;5.50;;;3.47;;
22646;SDS011;11490;42.726;23.268;2023-08-08T04:13:19;4.53;;;3.63;;
22646;SDS011;11490;42.726;23.268;2023-08-08T04:15:45;4.05;;;3.63;;
22646;SDS011;11490;42.726;23.268;2023-08-08T04:18:10;5.38;;;3.75;;
22646;SDS011;11490;42.726;23.268;2023-08-08T04:20:35;4.95;;;4.13;;
22646;SDS011;11490;42.726;23.268;2023-08-08T04:23:01;4.82;;;4.18;;
22646;SDS011;11490;42.726;23.268;2023-08-08T04:25:27;5.03;;;3.83;;
22646;SDS011;11490;42.726;23.268;2023-08-08T04:27:52;4.75;;;3.47;;
22646;SDS011;11490;42.726;23.268;2023-08-08T04:30:18;4.47;;;3.80;;
22646;SDS011;11490;42.726;23.268;2023-08-08T04:32:43;4.55;;;3.55;;
22646;SDS011;11490;42.726;23.268;2023-08-08T04:35:09;4.90;;;3.72;;
22646;SDS011;11490;42.726;23.268;2023-08-08T04:37:35;3.88;;;3.20;;
22646;SDS011;11490;42.726;23.268;2023-08-08T04:40:00;4.03;;;3.47;;
22646;SDS011;11490;42.726;23.268;2023-08-08T04:42:26;9.07;;;4.20;;
22646;SDS011;11490;42.726;23.268;2023-08-08T04:44:51;4.00;;;3.58;;
22646;SDS011;11490;42.726;23.268;2023-08-08T04:47:16;4.88;;;3.53;;
22646;SDS011;11490;42.726;23.268;2023-08-08T04:49:42;4.45;;;3.40;;
22646;SDS011;11490;42.726;23.268;2023-08-08T04:52:07;3.80;;;3.42;;
22646;SDS011;11490;42.726;23.268;2023-08-08T04:54:32;9.90;;;3.58;;
22646;SDS011;11490;42.726;23.268;2023-08-08T04:56:58;5.57;;;4.05;;
22646;SDS011;11490;42.726;23.268;2023-08-08T04:59:23;6.00;;;4.00;;
22646;SDS011;11490;42.726;23.268;2023-08-08T05:01:49;4.85;;;3.72;;
22646;SDS011;11490;42.726;23.268;2023-08-08T05:04:14;4.75;;;4.25;;
22646;SDS011;11490;42.726;23.268;2023-08-08T05:06:39;5.40;;;3.50;;
22646;SDS011;11490;42.726;23.268;2023-08-08T05:09:05;4.28;;;3.60;;
22646;SDS011;11490;42.726;23.268;2023-08-08T05:11:31;4.97;;;3.35;;
22646;SDS011;11490;42.726;23.268;2023-08-08T05:13:56;4.95;;;3.83;;
22646;SDS011;11490;42.726;23.268;2023-08-08T05:16:22;4.10;;;3.30;;
22646;SDS011;11490;42.726;23.268;2023-08-08T05:18:47;3.92;;;3.33;;
22646;SDS011;11490;42.726;23.268;2023-08-08T05:21:13;4.00;;;3.22;;
22646;SDS011;11490;42.726;23.268;2023-08-08T05:23:38;3.28;;;2.83;;
22646;SDS011;11490;42.726;23.268;2023-08-08T05:26:04;3.10;;;2.58;;
22646;SDS011;11490;42.726;23.268;2023-08-08T05:28:29;3.45;;;2.90;;
22646;SDS011;11490;42.726;23.268;2023-08-08T05:30:55;3.50;;;2.78;;
22646;SDS011;11490;42.726;23.268;2023-08-08T05:33:21;3.10;;;2.38;;
22646;SDS011;11490;42.726;23.268;2023-08-08T05:35:47;3.72;;;2.92;;
22646;SDS011;11490;42.726;23.268;2023-08-08T05:38:12;3.05;;;2.65;;
22646;SDS011;11490;42.726;23.268;2023-08-08T05:40:38;3.50;;;3.13;;
22646;SDS011;11490;42.726;23.268;2023-08-08T05:43:06;2.90;;;2.40;;
22646;SDS011;11490;42.726;23.268;2023-08-08T05:45:34;3.20;;;2.72;;
22646;SDS011;11490;42.726;23.268;2023-08-08T05:47:59;4.40;;;3.45;;
22646;SDS011;11490;42.726;23.268;2023-08-08T05:50:26;3.65;;;3.05;;
22646;SDS011;11490;42.726;23.268;2023-08-08T05:52:52;5.85;;;4.28;;
22646;SDS011;11490;42.726;23.268;2023-08-08T05:55:18;4.10;;;3.42;;
22646;SDS011;11490;42.726;23.268;2023-08-08T05:57:43;4.10;;;3.20;;
22646;SDS011;11490;42.726;23.268;2023-08-08T06:00:15;4.63;;;2.75;;
22646;SDS011;11490;42.726;23.268;2023-08-08T06:02:44;3.67;;;2.50;;
22646;SDS011;11490;42.726;23.268;2023-08-08T06:05:10;3.88;;;2.80;;
22646;SDS011;11490;42.726;23.268;2023-08-08T06:07:36;4.45;;;2.92;;
22646;SDS011;11490;42.726;23.268;2023-08-08T06:10:04;3.78;;;3.22;;
22646;SDS011;11490;42.726;23.268;2023-08-08T06:12:29;4.13;;;3.00;;
22646;SDS011;11490;42.726;23.268;2023-08-08T06:14:58;3.90;;;3.10;;
22646;SDS011;11490;42.726;23.268;2023-08-08T06:17:29;4.03;;;3.20;;
22646;SDS011;11490;42.726;23.268;2023-08-08T06:19:59;4.70;;;3.58;;
22646;SDS011;11490;42.726;23.268;2023-08-08T06:22:24;4.95;;;3.20;;
22646;SDS011;11490;42.726;23.268;2023-08-08T06:24:50;5.80;;;3.47;;
22646;SDS011;11490;42.726;23.268;2023-08-08T06:27:16;6.15;;;4.68;;
22646;SDS011;11490;42.726;23.268;2023-08-08T06:29:44;4.68;;;3.47;;
22646;SDS011;11490;42.726;23.268;2023-08-08T06:32:09;4.03;;;3.15;;
22646;SDS011;11490;42.726;23.268;2023-08-08T06:34:38;4.40;;;3.22;;
22646;SDS011;11490;42.726;23.268;2023-08-08T06:37:03;3.38;;;2.80;;
22646;SDS011;11490;42.726;23.268;2023-08-08T06:39:32;3.55;;;2.70;;
22646;SDS011;11490;42.726;23.268;2023-08-08T06:41:57;3.00;;;2.40;;
22646;SDS011;11490;42.726;23.268;2023-08-08T06:44:23;3.00;;;2.53;;
22646;SDS011;11490;42.726;23.268;2023-08-08T06:46:51;2.67;;;2.05;;
22646;SDS011;11490;42.726;23.268;2023-08-08T06:49:16;13.48;;;2.40;;
22646;SDS011;11490;42.726;23.268;2023-08-08T06:51:42;2.35;;;2.10;;
22646;SDS011;11490;42.726;23.268;2023-08-08T06:54:07;3.50;;;1.83;;
22646;SDS011;11490;42.726;23.268;2023-08-08T06:56:33;1.95;;;1.73;;
22646;SDS011;11490;42.726;23.268;2023-08-08T06:58:58;1.95;;;1.75;;
22646;SDS011;11490;42.726;23.268;2023-08-08T07:01:23;2.53;;;1.80;;
22646;SDS011;11490;42.726;23.268;2023-08-08T07:03:50;2.70;;;1.83;;
22646;SDS011;11490;42.726;23.268;2023-08-08T07:06:19;2.78;;;2.08;;
22646;SDS011;11490;42.726;23.268;2023-08-08T07:08:44;2.42;;;2.22;;
22646;SDS011;11490;42.726;23.268;2023-08-08T07:11:10;6.05;;;2.58;;
22646;SDS011;11490;42.726;23.268;2023-08-08T07:13:35;3.03;;;2.33;;
22646;SDS011;11490;42.726;23.268;2023-08-08T07:16:01;8.40;;;2.22;;
22646;SDS011;11490;42.726;23.268;2023-08-08T07:18:27;2.40;;;2.08;;
22646;SDS011;11490;42.726;23.268;2023-08-08T07:20:52;3.13;;;1.60;;
22646;SDS011;11490;42.726;23.268;2023-08-08T07:23:18;2.55;;;1.77;;
22646;SDS011;11490;42.726;23.268;2023-08-08T07:25:43;2.40;;;1.85;;
22646;SDS011;11490;42.726;23.268;2023-08-08T07:28:11;2.28;;;1.65;;
22646;SDS011;11490;42.726;23.268;2023-08-08T07:30:36;5.57;;;1.90;;
22646;SDS011;11490;42.726;23.268;2023-08-08T07:33:01;3.35;;;1.73;;
22646;SDS011;11490;42.726;23.268;2023-08-08T07:35:27;6.55;;;1.88;;
22646;SDS011;11490;42.726;23.268;2023-08-08T07:37:52;2.33;;;1.60;;
22646;SDS011;11490;42.726;23.268;2023-08-08T07:40:19;3.10;;;1.60;;
22646;SDS011;11490;42.726;23.268;2023-08-08T07:42:48;2.90;;;1.80;;
22646;SDS011;11490;42.726;23.268;2023-08-08T07:45:14;2.00;;;1.80;;
22646;SDS011;11490;42.726;23.268;2023-08-08T07:47:40;3.20;;;1.40;;
22646;SDS011;11490;42.726;23.268;2023-08-08T07:50:07;2.25;;;1.52;;
22646;SDS011;11490;42.726;23.268;2023-08-08T07:52:36;1.60;;;1.23;;
22646;SDS011;11490;42.726;23.268;2023-08-08T07:55:03;2.20;;;1.70;;
22646;SDS011;11490;42.726;23.268;2023-08-08T07:57:29;2.20;;;1.42;;
22646;SDS011;11490;42.726;23.268;2023-08-08T08:00:03;4.00;;;1.80;;
22646;SDS011;11490;42.726;23.268;2023-08-08T08:02:36;2.10;;;1.60;;
22646;SDS011;11490;42.726;23.268;2023-08-08T08:05:02;1.90;;;1.38;;
22646;SDS011;11490;42.726;23.268;2023-08-08T08:07:30;1.40;;;1.30;;
22646;SDS011;11490;42.726;23.268;2023-08-08T08:09:57;1.27;;;1.17;;
22646;SDS011;11490;42.726;23.268;2023-08-08T08:12:22;1.77;;;1.38;;
22646;SDS011;11490;42.726;23.268;2023-08-08T08:14:47;2.10;;;1.42;;
22646;SDS011;11490;42.726;23.268;2023-08-08T08:17:13;1.90;;;1.52;;
22646;SDS011;11490;42.726;23.268;2023-08-08T08:19:38;2.25;;;1.58;;
22646;SDS011;11490;42.726;23.268;2023-08-08T08:22:03;2.80;;;1.73;;
22646;SDS011;11490;42.726;23.268;2023-08-08T08:24:29;2.50;;;1.67;;
22646;SDS011;11490;42.726;23.268;2023-08-08T08:26:54;2.28;;;1.60;;
22646;SDS011;11490;42.726;23.268;2023-08-08T08:29:20;2.22;;;1.80;;
22646;SDS011;11490;42.726;23.268;2023-08-08T08:31:45;2.63;;;1.70;;
22646;SDS011;11490;42.726;23.268;2023-08-08T08:34:11;2.05;;;1.50;;
22646;SDS011;11490;42.726;23.268;2023-08-08T08:36:36;2.53;;;1.85;;
22646;SDS011;11490;42.726;23.268;2023-08-08T08:39:02;2.28;;;1.63;;
22646;SDS011;11490;42.726;23.268;2023-08-08T08:41:28;2.13;;;1.65;;
22646;SDS011;11490;42.726;23.268;2023-08-08T08:43:56;3.13;;;2.22;;
22646;SDS011;11490;42.726;23.268;2023-08-08T08:46:22;2.60;;;2.05;;
22646;SDS011;11490;42.726;23.268;2023-08-08T08:48:54;1.90;;;1.65;;
22646;SDS011;11490;42.726;23.268;2023-08-08T08:51:21;2.33;;;1.88;;
22646;SDS011;11490;42.726;23.268;2023-08-08T08:53:47;2.40;;;1.65;;
22646;SDS011;11490;42.726;23.268;2023-08-08T08:56:15;1.83;;;1.48;;
22646;SDS011;11490;42.726;23.268;2023-08-08T08:58:42;5.30;;;1.90;;
22646;SDS011;11490;42.726;23.268;2023-08-08T09:01:16;1.90;;;1.60;;
22646;SDS011;11490;42.726;23.268;2023-08-08T09:03:43;2.38;;;1.70;;
22646;SDS011;11490;42.726;23.268;2023-08-08T09:06:10;1.48;;;1.38;;
22646;SDS011;11490;42.726;23.268;2023-08-08T09:08:37;1.35;;;1.25;;
22646;SDS011;11490;42.726;23.268;2023-08-08T09:11:03;1.77;;;1.50;;
22646;SDS011;11490;42.726;23.268;2023-08-08T09:13:33;3.13;;;1.80;;
22646;SDS011;11490;42.726;23.268;2023-08-08T09:16:02;1.85;;;1.40;;
22646;SDS011;11490;42.726;23.268;2023-08-08T09:18:30;6.93;;;5.03;;
22646;SDS011;11490;42.726;23.268;2023-08-08T09:20:57;3.88;;;2.33;;
22646;SDS011;11490;42.726;23.268;2023-08-08T09:23:23;2.17;;;1.60;;
22646;SDS011;11490;42.726;23.268;2023-08-08T09:25:48;2.83;;;1.70;;
22646;SDS011;11490;42.726;23.268;2023-08-08T09:28:14;2.83;;;1.75;;
22646;SDS011;11490;42.726;23.268;2023-08-08T09:30:40;2.17;;;1.58;;
22646;SDS011;11490;42.726;23.268;2023-08-08T09:33:15;8.27;;;1.90;;
22646;SDS011;11490;42.726;23.268;2023-08-08T09:35:42;2.72;;;1.80;;
22646;SDS011;11490;42.726;23.268;2023-08-08T09:38:09;2.15;;;1.75;;
22646;SDS011;11490;42.726;23.268;2023-08-08T09:40:34;5.82;;;1.67;;
22646;SDS011;11490;42.726;23.268;2023-08-08T09:43:00;1.63;;;1.50;;
22646;SDS011;11490;42.726;23.268;2023-08-08T09:45:39;3.50;;;1.52;;
22646;SDS011;11490;42.726;23.268;2023-08-08T09:48:09;2.13;;;1.67;;
22646;SDS011;11490;42.726;23.268;2023-08-08T09:50:35;2.70;;;2.00;;
22646;SDS011;11490;42.726;23.268;2023-08-08T09:53:03;11.13;;;8.25;;
22646;SDS011;11490;42.726;23.268;2023-08-08T09:55:29;3.55;;;2.70;;
22646;SDS011;11490;42.726;23.268;2023-08-08T09:57:58;2.72;;;1.88;;
22646;SDS011;11490;42.726;23.268;2023-08-08T10:00:25;2.25;;;1.48;;
22646;SDS011;11490;42.726;23.268;2023-08-08T10:02:53;2.13;;;1.67;;
22646;SDS011;11490;42.726;23.268;2023-08-08T10:05:19;2.08;;;1.88;;
22646;SDS011;11490;42.726;23.268;2023-08-08T10:07:44;2.63;;;2.17;;
22646;SDS011;11490;42.726;23.268;2023-08-08T10:10:10;2.40;;;2.00;;
22646;SDS011;11490;42.726;23.268;2023-08-08T10:12:39;2.30;;;1.70;;
22646;SDS011;11490;42.726;23.268;2023-08-08T10:15:08;2.92;;;1.67;;
22646;SDS011;11490;42.726;23.268;2023-08-08T10:17:35;2.38;;;1.88;;
22646;SDS011;11490;42.726;23.268;2023-08-08T10:20:02;1.98;;;1.48;;
22646;SDS011;11490;42.726;23.268;2023-08-08T10:22:36;2.78;;;1.42;;
22646;SDS011;11490;42.726;23.268;2023-08-08T10:25:03;1.85;;;1.67;;
22646;SDS011;11490;42.726;23.268;2023-08-08T10:27:32;2.08;;;1.52;;
22646;SDS011;11490;42.726;23.268;2023-08-08T10:30:02;2.58;;;1.77;;
22646;SDS011;11490;42.726;23.268;2023-08-08T10:32:28;1.75;;;1.33;;
22646;SDS011;11490;42.726;23.268;2023-08-08T10:34:54;2.55;;;1.80;;
22646;SDS011;11490;42.726;23.268;2023-08-08T10:37:20;2.15;;;1.60;;
22646;SDS011;11490;42.726;23.268;2023-08-08T10:39:51;1.30;;;1.00;;
22646;SDS011;11490;42.726;23.268;2023-08-08T10:42:20;1.48;;;1.17;;
22646;SDS011;11490;42.726;23.268;2023-08-08T10:44:51;1.88;;;1.42;;
22646;SDS011;11490;42.726;23.268;2023-08-08T10:47:24;3.92;;;1.33;;
22646;SDS011;11490;42.726;23.268;2023-08-08T10:50:07;1.67;;;1.33;;
22646;SDS011;11490;42.726;23.268;2023-08-08T10:55:22;1.73;;;1.30;;
22646;SDS011;11490;42.726;23.268;2023-08-08T11:00:28;2.17;;;1.00;;
22646;SDS011;11490;42.726;23.268;2023-08-08T11:02:56;1.60;;;1.23;;
22646;SDS011;11490;42.726;23.268;2023-08-08T11:05:22;1.13;;;1.02;;
22646;SDS011;11490;42.726;23.268;2023-08-08T11:07:49;1.60;;;1.35;;
22646;SDS011;11490;42.726;23.268;2023-08-08T11:10:14;1.50;;;1.35;;
22646;SDS011;11490;42.726;23.268;2023-08-08T11:12:40;1.40;;;1.10;;
22646;SDS011;11490;42.726;23.268;2023-08-08T11:15:05;1.50;;;1.20;;
22646;SDS011;11490;42.726;23.268;2023-08-08T11:17:32;2.00;;;1.40;;
22646;SDS011;11490;42.726;23.268;2023-08-08T11:19:57;1.55;;;1.20;;
22646;SDS011;11490;42.726;23.268;2023-08-08T11:22:23;2.05;;;1.42;;
22646;SDS011;11490;42.726;23.268;2023-08-08T11:24:49;1.50;;;1.17;;
22646;SDS011;11490;42.726;23.268;2023-08-08T11:27:15;1.85;;;1.35;;
22646;SDS011;11490;42.726;23.268;2023-08-08T11:29:41;1.85;;;1.20;;
22646;SDS011;11490;42.726;23.268;2023-08-08T11:32:15;2.75;;;1.13;;
22646;SDS011;11490;42.726;23.268;2023-08-08T11:34:40;1.98;;;1.42;;
22646;SDS011;11490;42.726;23.268;2023-08-08T11:37:06;1.92;;;1.48;;
22646;SDS011;11490;42.726;23.268;2023-08-08T11:39:31;2.05;;;1.40;;
22646;SDS011;11490;42.726;23.268;2023-08-08T11:41:57;1.33;;;1.10;;
22646;SDS011;11490;42.726;23.268;2023-08-08T11:44:26;1.17;;;1.08;;
22646;SDS011;11490;42.726;23.268;2023-08-08T11:46:52;2.22;;;1.40;;
22646;SDS011;11490;42.726;23.268;2023-08-08T11:49:17;1.50;;;1.17;;
22646;SDS011;11490;42.726;23.268;2023-08-08T11:51:43;1.80;;;1.20;;
22646;SDS011;11490;42.726;23.268;2023-08-08T11:54:10;2.05;;;1.30;;
22646;SDS011;11490;42.726;23.268;2023-08-08T11:56:36;1.98;;;1.50;;
22646;SDS011;11490;42.726;23.268;2023-08-08T11:59:02;1.30;;;1.00;;
22646;SDS011;11490;42.726;23.268;2023-08-08T12:01:28;1.25;;;1.00;;
22646;SDS011;11490;42.726;23.268;2023-08-08T12:03:56;1.92;;;1.33;;
22646;SDS011;11490;42.726;23.268;2023-08-08T12:06:22;2.95;;;1.40;;
22646;SDS011;11490;42.726;23.268;2023-08-08T12:08:53;1.73;;;1.33;;
22646;SDS011;11490;42.726;23.268;2023-08-08T12:11:19;1.42;;;1.13;;
22646;SDS011;11490;42.726;23.268;2023-08-08T12:13:45;1.30;;;1.20;;
22646;SDS011;11490;42.726;23.268;2023-08-08T12:16:12;1.30;;;1.20;;
22646;SDS011;11490;42.726;23.268;2023-08-08T12:18:39;2.63;;;1.50;;
22646;SDS011;11490;42.726;23.268;2023-08-08T12:21:05;2.72;;;1.30;;
22646;SDS011;11490;42.726;23.268;2023-08-08T12:23:31;1.40;;;1.20;;
22646;SDS011;11490;42.726;23.268;2023-08-08T12:25:57;3.08;;;1.52;;
22646;SDS011;11490;42.726;23.268;2023-08-08T12:28:24;2.00;;;1.50;;
22646;SDS011;11490;42.726;23.268;2023-08-08T12:30:49;1.65;;;1.17;;
22646;SDS011;11490;42.726;23.268;2023-08-08T12:33:15;1.38;;;1.20;;
22646;SDS011;11490;42.726;23.268;2023-08-08T12:35:40;1.30;;;1.10;;
22646;SDS011;11490;42.726;23.268;2023-08-08T12:38:05;1.95;;;1.60;;
22646;SDS011;11490;42.726;23.268;2023-08-08T12:40:31;1.42;;;1.33;;
22646;SDS011;11490;42.726;23.268;2023-08-08T12:42:56;1.60;;;1.38;;
22646;SDS011;11490;42.726;23.268;2023-08-08T12:45:22;2.50;;;1.30;;
22646;SDS011;11490;42.726;23.268;2023-08-08T12:47:47;1.60;;;1.20;;
22646;SDS011;11490;42.726;23.268;2023-08-08T12:50:12;5.22;;;1.50;;
22646;SDS011;11490;42.726;23.268;2023-08-08T12:52:39;1.65;;;1.20;;
22646;SDS011;11490;42.726;23.268;2023-08-08T12:55:05;1.50;;;1.35;;
22646;SDS011;11490;42.726;23.268;2023-08-08T12:57:32;1.80;;;1.23;;
22646;SDS011;11490;42.726;23.268;2023-08-08T12:59:57;1.15;;;1.05;;
22646;SDS011;11490;42.726;23.268;2023-08-08T13:02:23;5.32;;;1.40;;
22646;SDS011;11490;42.726;23.268;2023-08-08T13:04:48;1.88;;;1.33;;
22646;SDS011;11490;42.726;23.268;2023-08-08T13:07:14;2.15;;;1.48;;
22646;SDS011;11490;42.726;23.268;2023-08-08T13:09:39;1.05;;;0.95;;
22646;SDS011;11490;42.726;23.268;2023-08-08T13:12:05;2.17;;;1.30;;
22646;SDS011;11490;42.726;23.268;2023-08-08T13:14:31;1.38;;;1.20;;
22646;SDS011;11490;42.726;23.268;2023-08-08T13:16:56;2.08;;;1.50;;
22646;SDS011;11490;42.726;23.268;2023-08-08T13:19:22;1.58;;;1.33;;
22646;SDS011;11490;42.726;23.268;2023-08-08T13:21:50;3.10;;;1.55;;
22646;SDS011;11490;42.726;23.268;2023-08-08T13:24:16;2.30;;;1.60;;
22646;SDS011;11490;42.726;23.268;2023-08-08T13:26:42;1.88;;;1.48;;
22646;SDS011;11490;42.726;23.268;2023-08-08T13:29:07;1.88;;;1.48;;
22646;SDS011;11490;42.726;23.268;2023-08-08T13:31:33;1.65;;;1.42;;
22646;SDS011;11490;42.726;23.268;2023-08-08T13:33:59;2.00;;;1.55;;
22646;SDS011;11490;42.726;23.268;2023-08-08T13:36:24;4.50;;;1.77;;
22646;SDS011;11490;42.726;23.268;2023-08-08T13:38:50;2.72;;;1.85;;
22646;SDS011;11490;42.726;23.268;2023-08-08T13:41:15;1.55;;;1.40;;
22646;SDS011;11490;42.726;23.268;2023-08-08T13:43:41;2.55;;;1.70;;
22646;SDS011;11490;42.726;23.268;2023-08-08T13:46:06;3.60;;;1.80;;
22646;SDS011;11490;42.726;23.268;2023-08-08T13:48:34;2.25;;;1.38;;
22646;SDS011;11490;42.726;23.268;2023-08-08T13:51:02;1.92;;;1.38;;
22646;SDS011;11490;42.726;23.268;2023-08-08T13:53:28;2.08;;;1.60;;
22646;SDS011;11490;42.726;23.268;2023-08-08T13:55:54;1.17;;;1.08;;
22646;SDS011;11490;42.726;23.268;2023-08-08T13:58:20;1.75;;;1.40;;
22646;SDS011;11490;42.726;23.268;2023-08-08T14:00:49;1.58;;;1.30;;
22646;SDS011;11490;42.726;23.268;2023-08-08T14:03:15;1.98;;;1.27;;
22646;SDS011;11490;42.726;23.268;2023-08-08T14:05:40;2.17;;;1.40;;
22646;SDS011;11490;42.726;23.268;2023-08-08T14:08:05;2.38;;;1.33;;
22646;SDS011;11490;42.726;23.268;2023-08-08T14:10:31;1.80;;;1.23;;
22646;SDS011;11490;42.726;23.268;2023-08-08T14:12:57;5.22;;;1.40;;
22646;SDS011;11490;42.726;23.268;2023-08-08T14:15:22;1.98;;;1.45;;
22646;SDS011;11490;42.726;23.268;2023-08-08T14:17:48;3.22;;;1.30;;
22646;SDS011;11490;42.726;23.268;2023-08-08T14:20:13;1.13;;;1.00;;
22646;SDS011;11490;42.726;23.268;2023-08-08T14:22:39;2.97;;;1.52;;
22646;SDS011;11490;42.726;23.268;2023-08-08T14:25:04;1.67;;;1.23;;
22646;SDS011;11490;42.726;23.268;2023-08-08T14:27:31;1.48;;;1.02;;
22646;SDS011;11490;42.726;23.268;2023-08-08T14:29:56;1.10;;;1.00;;
22646;SDS011;11490;42.726;23.268;2023-08-08T14:32:22;1.92;;;1.20;;
22646;SDS011;11490;42.726;23.268;2023-08-08T14:34:47;2.53;;;1.17;;
22646;SDS011;11490;42.726;23.268;2023-08-08T14:37:13;1.27;;;1.17;;